createdAt,value
2019-01-25T00:00:22.140Z,37.98
2019-01-25T00:01:21.838Z,37.93
2019-01-25T00:02:21.830Z,37.92
2019-01-25T00:03:21.848Z,37.91
2019-01-25T00:04:21.817Z,37.96
2019-01-25T00:05:22.032Z,37.96
2019-01-25T00:06:21.668Z,37.99
2019-01-25T00:07:21.568Z,37.95
2019-01-25T00:08:22.134Z,37.93
2019-01-25T00:09:21.792Z,37.98
2019-01-25T00:10:21.853Z,37.96
2019-01-25T00:11:21.796Z,37.87
2019-01-25T00:12:21.917Z,37.92
2019-01-25T00:13:21.824Z,37.93
2019-01-25T00:14:22.167Z,37.97
2019-01-25T00:15:22.244Z,37.98
2019-01-25T00:16:21.772Z,37.94
2019-01-25T00:17:21.812Z,37.96
2019-01-25T00:18:21.806Z,37.98
2019-01-25T00:19:21.924Z,38.03
2019-01-25T00:20:22.136Z,37.98
2019-01-25T00:21:21.932Z,37.98
2019-01-25T00:22:22.638Z,37.9
2019-01-25T00:23:22.059Z,37.89
2019-01-25T00:24:21.883Z,37.95
2019-01-25T00:25:21.724Z,38.03
2019-01-25T00:26:21.991Z,37.92
2019-01-25T00:27:21.828Z,37.94
2019-01-25T00:28:21.951Z,37.9
2019-01-25T00:29:22.412Z,37.93
2019-01-25T00:30:22.233Z,37.89
2019-01-25T00:31:22.218Z,37.91
2019-01-25T00:32:22.331Z,37.94
2019-01-25T00:33:23.663Z,37.9
2019-01-25T00:34:21.919Z,37.93
2019-01-25T00:35:21.972Z,37.85
2019-01-25T00:36:23.489Z,37.95
2019-01-25T00:37:21.938Z,37.96
2019-01-25T00:38:21.982Z,37.89
2019-01-25T00:39:22.075Z,37.89
2019-01-25T00:40:22.360Z,37.92
2019-01-25T00:41:22.187Z,37.97
2019-01-25T00:42:21.705Z,37.92
2019-01-25T00:43:22.275Z,37.93
2019-01-25T00:44:22.116Z,37.94
2019-01-25T00:45:21.667Z,37.9
2019-01-25T00:46:22.009Z,37.85
2019-01-25T00:47:22.437Z,37.94
2019-01-25T00:48:22.444Z,37.93
2019-01-25T00:49:23.670Z,37.84
2019-01-25T00:50:23.773Z,37.93
2019-01-25T00:51:21.852Z,37.94
2019-01-25T00:52:21.765Z,37.89
2019-01-25T00:53:21.718Z,37.9
2019-01-25T00:54:22.408Z,37.93
2019-01-25T00:55:22.091Z,37.87
2019-01-25T00:56:21.923Z,37.9
2019-01-25T00:57:22.003Z,37.91
2019-01-25T00:58:21.629Z,37.97
2019-01-25T00:59:22.097Z,37.88
2019-01-25T01:00:22.051Z,37.86
2019-01-25T01:01:21.713Z,37.87
2019-01-25T01:02:22.255Z,37.88
2019-01-25T01:03:21.519Z,37.86
2019-01-25T01:04:22.945Z,37.96
2019-01-25T01:05:22.041Z,37.91
2019-01-25T01:06:21.800Z,37.96
2019-01-25T01:07:22.035Z,37.92
2019-01-25T01:08:21.904Z,37.88
2019-01-25T01:09:21.811Z,37.92
2019-01-25T01:10:22.014Z,37.87
2019-01-25T01:11:21.607Z,37.91
2019-01-25T01:12:22.344Z,37.93
2019-01-25T01:13:21.715Z,37.95
2019-01-25T01:14:21.617Z,37.93
2019-01-25T01:15:22.021Z,37.95
2019-01-25T01:16:21.755Z,37.98
2019-01-25T01:17:21.508Z,37.92
2019-01-25T01:18:21.749Z,37.9
2019-01-25T01:19:22.438Z,37.91
2019-01-25T01:20:22.050Z,37.92
2019-01-25T01:21:21.856Z,37.94
2019-01-25T01:22:22.077Z,37.9
2019-01-25T01:23:22.033Z,37.98
2019-01-25T01:24:21.804Z,37.93
2019-01-25T01:25:22.370Z,37.9
2019-01-25T01:26:21.854Z,37.9
2019-01-25T01:27:21.970Z,37.95
2019-01-25T01:28:21.737Z,37.94
2019-01-25T01:29:22.026Z,37.93
2019-01-25T01:30:21.822Z,37.94
2019-01-25T01:31:21.699Z,37.99
2019-01-25T01:32:22.020Z,37.94
2019-01-25T01:33:21.921Z,37.91
2019-01-25T01:34:22.149Z,37.94
2019-01-25T01:35:21.842Z,37.99
2019-01-25T01:36:21.942Z,37.91
2019-01-25T01:37:21.896Z,37.96
2019-01-25T01:38:22.682Z,37.95
2019-01-25T01:39:22.083Z,37.9
2019-01-25T01:40:23.036Z,37.92
2019-01-25T01:41:21.795Z,37.91
2019-01-25T01:42:22.198Z,37.95
2019-01-25T01:43:21.778Z,37.96
2019-01-25T01:44:21.762Z,37.88
2019-01-25T01:45:21.835Z,37.91
2019-01-25T01:46:21.873Z,37.88
2019-01-25T01:47:21.745Z,37.89
2019-01-25T01:48:21.762Z,37.92
2019-01-25T01:49:22.090Z,37.97
2019-01-25T01:50:21.731Z,37.9
2019-01-25T01:51:22.028Z,37.92
2019-01-25T01:52:21.972Z,37.9
2019-01-25T01:53:21.736Z,37.92
2019-01-25T01:54:21.794Z,37.92
2019-01-25T01:55:21.907Z,37.88
2019-01-25T01:56:21.622Z,37.94
2019-01-25T01:57:21.747Z,37.9
2019-01-25T01:58:21.485Z,37.94
2019-01-25T01:59:21.726Z,37.92
2019-01-25T02:00:21.774Z,37.97
2019-01-25T02:01:21.773Z,37.92
2019-01-25T02:02:21.851Z,37.9
2019-01-25T02:03:21.860Z,37.88
2019-01-25T02:04:21.711Z,37.86
2019-01-25T02:05:21.722Z,37.97
2019-01-25T02:06:22.190Z,37.95
2019-01-25T02:07:21.976Z,37.91
2019-01-25T02:08:21.734Z,37.89
2019-01-25T02:09:21.972Z,37.95
2019-01-25T02:10:30.067Z,37.94
2019-01-25T02:11:21.780Z,37.95
2019-01-25T02:12:23.956Z,37.95
2019-01-25T02:13:22.143Z,37.91
2019-01-25T02:14:21.780Z,37.91
2019-01-25T02:15:21.906Z,37.94
2019-01-25T02:16:21.734Z,37.88
2019-01-25T02:17:21.687Z,37.95
2019-01-25T02:18:22.197Z,37.9
2019-01-25T02:19:21.710Z,37.85
2019-01-25T02:20:22.171Z,37.82
2019-01-25T02:21:24.736Z,37.88
2019-01-25T02:22:22.001Z,37.95
2019-01-25T02:23:22.092Z,37.88
2019-01-25T02:24:21.611Z,37.88
2019-01-25T02:25:21.624Z,37.83
2019-01-25T02:26:21.732Z,37.87
2019-01-25T02:27:22.241Z,37.88
2019-01-25T02:28:21.926Z,37.9
2019-01-25T02:29:22.144Z,37.87
2019-01-25T02:30:21.504Z,37.89
2019-01-25T02:31:21.956Z,37.87
2019-01-25T02:32:21.635Z,37.85
2019-01-25T02:33:23.647Z,37.94
2019-01-25T02:34:21.798Z,37.92
2019-01-25T02:35:21.760Z,37.88
2019-01-25T02:36:21.925Z,37.94
2019-01-25T02:37:21.725Z,37.89
2019-01-25T02:38:22.013Z,37.92
2019-01-25T02:39:21.820Z,37.86
2019-01-25T02:40:22.182Z,37.9
2019-01-25T02:41:22.065Z,37.98
2019-01-25T02:42:22.754Z,37.95
2019-01-25T02:43:21.667Z,37.92
2019-01-25T02:44:21.806Z,37.92
2019-01-25T02:45:21.541Z,37.92
2019-01-25T02:46:21.654Z,37.9
2019-01-25T02:47:21.926Z,37.86
2019-01-25T02:48:21.859Z,37.91
2019-01-25T02:49:21.834Z,37.9
2019-01-25T02:50:21.755Z,37.88
2019-01-25T02:51:21.665Z,37.86
2019-01-25T02:52:21.927Z,37.89
2019-01-25T02:53:21.763Z,37.92
2019-01-25T02:54:21.672Z,37.87
2019-01-25T02:55:22.350Z,37.92
2019-01-25T02:56:21.981Z,37.82
2019-01-25T02:57:21.815Z,37.85
2019-01-25T02:58:21.966Z,37.81
2019-01-25T02:59:21.881Z,37.92
2019-01-25T03:00:21.786Z,37.91
2019-01-25T03:01:22.419Z,37.88
2019-01-25T03:02:21.686Z,37.82
2019-01-25T03:03:22.047Z,37.85
2019-01-25T03:04:22.018Z,37.88
2019-01-25T03:05:24.128Z,37.88
2019-01-25T03:06:22.091Z,37.87
2019-01-25T03:07:21.814Z,37.95
2019-01-25T03:08:22.132Z,37.84
2019-01-25T03:09:23.460Z,37.84
2019-01-25T03:10:29.814Z,37.83
2019-01-25T03:11:22.363Z,37.87
2019-01-25T03:12:21.647Z,37.85
2019-01-25T03:13:21.850Z,37.85
2019-01-25T03:14:21.692Z,37.85
2019-01-25T03:15:22.115Z,37.84
2019-01-25T03:16:22.027Z,37.88
2019-01-25T03:17:21.683Z,37.8
2019-01-25T03:18:21.690Z,37.85
2019-01-25T03:19:21.539Z,37.87
2019-01-25T03:20:21.876Z,37.89
2019-01-25T03:21:21.939Z,37.93
2019-01-25T03:22:22.097Z,37.85
2019-01-25T03:23:22.025Z,37.86
2019-01-25T03:24:22.038Z,37.83
2019-01-25T03:25:21.978Z,37.9
2019-01-25T03:26:22.152Z,37.86
2019-01-25T03:27:21.995Z,37.85
2019-01-25T03:28:22.080Z,37.82
2019-01-25T03:29:21.482Z,37.85
2019-01-25T03:30:21.541Z,37.9
2019-01-25T03:31:21.703Z,37.85
2019-01-25T03:32:21.821Z,37.83
2019-01-25T03:33:22.213Z,37.87
2019-01-25T03:34:23.753Z,37.86
2019-01-25T03:35:21.963Z,37.8
2019-01-25T03:36:21.758Z,37.81
2019-01-25T03:37:21.854Z,37.86
2019-01-25T03:38:21.535Z,37.8
2019-01-25T03:39:21.874Z,37.87
2019-01-25T03:40:22.081Z,37.92
2019-01-25T03:41:21.695Z,37.83
2019-01-25T03:42:22.159Z,37.83
2019-01-25T03:43:24.104Z,37.79
2019-01-25T03:44:21.815Z,37.85
2019-01-25T03:45:21.846Z,37.86
2019-01-25T03:46:21.713Z,37.83
2019-01-25T03:47:21.823Z,37.81
2019-01-25T03:48:21.749Z,37.78
2019-01-25T03:49:21.797Z,37.84
2019-01-25T03:50:21.712Z,37.87
2019-01-25T03:51:22.079Z,37.83
2019-01-25T03:52:23.591Z,37.8
2019-01-25T03:53:21.757Z,37.79
2019-01-25T03:54:22.018Z,37.79
2019-01-25T03:55:21.821Z,37.9
2019-01-25T03:56:21.481Z,37.83
2019-01-25T03:57:21.841Z,37.75
2019-01-25T03:58:22.047Z,37.78
2019-01-25T03:59:21.900Z,37.8
2019-01-25T04:00:21.791Z,37.83
2019-01-25T04:01:21.943Z,37.84
2019-01-25T04:02:21.724Z,37.87
2019-01-25T04:03:21.934Z,37.83
2019-01-25T04:04:21.847Z,37.8
2019-01-25T04:05:21.822Z,37.85
2019-01-25T04:06:21.517Z,37.8
2019-01-25T04:07:21.735Z,37.77
2019-01-25T04:08:21.852Z,37.84
2019-01-25T04:09:22.845Z,37.89
2019-01-25T04:10:21.872Z,37.92
2019-01-25T04:11:22.156Z,37.77
2019-01-25T04:12:21.715Z,37.93
2019-01-25T04:13:21.504Z,37.86
2019-01-25T04:14:21.857Z,37.81
2019-01-25T04:15:21.683Z,37.85
2019-01-25T04:16:24.850Z,37.82
2019-01-25T04:17:21.735Z,37.84
2019-01-25T04:18:22.188Z,37.87
2019-01-25T04:19:21.922Z,37.85
2019-01-25T04:20:21.768Z,37.86
2019-01-25T04:21:21.788Z,37.86
2019-01-25T04:22:21.755Z,37.81
2019-01-25T04:23:21.957Z,37.78
2019-01-25T04:24:21.914Z,37.83
2019-01-25T04:25:23.060Z,37.8
2019-01-25T04:26:22.065Z,37.85
2019-01-25T04:27:22.060Z,37.82
2019-01-25T04:28:21.955Z,37.85
2019-01-25T04:29:22.019Z,37.83
2019-01-25T04:30:22.170Z,37.9
2019-01-25T04:31:21.727Z,37.87
2019-01-25T04:32:21.746Z,37.86
2019-01-25T04:33:21.955Z,37.83
2019-01-25T04:34:21.641Z,37.81
2019-01-25T04:35:21.873Z,37.9
2019-01-25T04:36:21.709Z,37.82
2019-01-25T04:37:21.512Z,37.85
2019-01-25T04:38:21.571Z,37.86
2019-01-25T04:39:22.734Z,37.81
2019-01-25T04:40:21.625Z,37.86
2019-01-25T04:41:22.245Z,37.9
2019-01-25T04:42:21.765Z,37.94
2019-01-25T04:43:22.004Z,37.88
2019-01-25T04:44:21.585Z,37.98
2019-01-25T04:45:21.718Z,38
2019-01-25T04:46:21.511Z,37.94
2019-01-25T04:47:21.753Z,38.04
2019-01-25T04:48:21.501Z,38.01
2019-01-25T04:49:22.159Z,38.03
2019-01-25T04:50:21.704Z,38.04
2019-01-25T04:51:21.966Z,38.06
2019-01-25T04:52:21.694Z,38.06
2019-01-25T04:53:21.599Z,38.05
2019-01-25T04:54:21.641Z,38.06
2019-01-25T04:55:21.713Z,37.99
2019-01-25T04:56:21.980Z,37.98
2019-01-25T04:57:21.686Z,37.88
2019-01-25T04:58:21.819Z,37.88
2019-01-25T04:59:22.093Z,37.91
2019-01-25T05:00:21.931Z,37.96
2019-01-25T05:01:22.070Z,37.89
2019-01-25T05:02:21.623Z,37.93
2019-01-25T05:03:21.905Z,37.91
2019-01-25T05:04:21.835Z,37.96
2019-01-25T05:05:21.559Z,38.03
2019-01-25T05:06:21.946Z,37.97
2019-01-25T05:07:21.744Z,38.05
2019-01-25T05:08:23.462Z,38.05
2019-01-25T05:09:21.900Z,37.96
2019-01-25T05:10:21.464Z,38.11
2019-01-25T05:11:21.731Z,38.03
2019-01-25T05:12:22.507Z,38.12
2019-01-25T05:13:22.012Z,38.12
2019-01-25T05:14:21.493Z,38.07
2019-01-25T05:15:21.787Z,38.05
2019-01-25T05:16:21.922Z,38.03
2019-01-25T05:17:21.710Z,38.02
2019-01-25T05:18:22.298Z,38.06
2019-01-25T05:19:21.947Z,37.99
2019-01-25T05:20:21.565Z,38.01
2019-01-25T05:21:21.549Z,38.06
2019-01-25T05:22:21.899Z,38.01
2019-01-25T05:23:21.622Z,38
2019-01-25T05:24:21.779Z,37.99
2019-01-25T05:25:23.506Z,37.99
2019-01-25T05:26:21.891Z,37.99
2019-01-25T05:27:22.224Z,38.01
2019-01-25T05:28:21.792Z,37.97
2019-01-25T05:29:21.539Z,37.89
2019-01-25T05:30:21.518Z,37.98
2019-01-25T05:31:21.991Z,37.97
2019-01-25T05:32:22.026Z,37.92
2019-01-25T05:33:22.276Z,37.92
2019-01-25T05:34:21.506Z,37.9
2019-01-25T05:35:21.706Z,37.93
2019-01-25T05:36:22.734Z,37.89
2019-01-25T05:37:22.010Z,37.92
2019-01-25T05:38:21.941Z,37.89
2019-01-25T05:39:21.737Z,37.89
2019-01-25T05:40:22.609Z,37.88
2019-01-25T05:41:29.105Z,37.89
2019-01-25T05:42:21.994Z,37.88
2019-01-25T05:43:21.915Z,37.91
2019-01-25T05:44:21.454Z,37.85
2019-01-25T05:45:21.868Z,37.82
2019-01-25T05:46:22.008Z,37.88
2019-01-25T05:47:21.435Z,37.86
2019-01-25T05:48:21.551Z,37.87
2019-01-25T05:49:21.800Z,37.89
2019-01-25T05:50:22.061Z,37.88
2019-01-25T05:51:21.938Z,37.91
2019-01-25T05:52:21.677Z,37.88
2019-01-25T05:53:24.912Z,37.88
2019-01-25T05:54:22.056Z,37.87
2019-01-25T05:55:21.834Z,37.86
2019-01-25T05:56:22.001Z,37.9
2019-01-25T05:57:21.566Z,37.8
2019-01-25T05:58:21.709Z,37.86
2019-01-25T05:59:21.793Z,37.89
2019-01-25T06:00:21.801Z,37.87
2019-01-25T06:01:21.923Z,37.91
2019-01-25T06:02:24.928Z,37.89
2019-01-25T06:03:21.619Z,37.88
2019-01-25T06:04:21.740Z,37.9
2019-01-25T06:05:21.568Z,37.88
2019-01-25T06:06:21.556Z,37.9
2019-01-25T06:07:21.727Z,37.9
2019-01-25T06:08:21.465Z,37.83
2019-01-25T06:09:21.914Z,37.85
2019-01-25T06:10:22.015Z,37.81
2019-01-25T06:11:24.655Z,37.79
2019-01-25T06:12:22.622Z,37.83
2019-01-25T06:13:21.678Z,37.88
2019-01-25T06:14:21.459Z,37.81
2019-01-25T06:15:21.924Z,37.8
2019-01-25T06:16:22.268Z,37.84
2019-01-25T06:17:21.530Z,37.78
2019-01-25T06:18:21.942Z,37.83
2019-01-25T06:19:22.162Z,37.78
2019-01-25T06:20:25.527Z,37.85
2019-01-25T06:21:21.933Z,37.8
2019-01-25T06:22:22.084Z,37.81
2019-01-25T06:23:21.524Z,37.76
2019-01-25T06:24:21.433Z,37.78
2019-01-25T06:25:22.171Z,37.81
2019-01-25T06:26:21.761Z,37.77
2019-01-25T06:27:22.322Z,37.8
2019-01-25T06:28:21.794Z,37.75
2019-01-25T06:29:22.727Z,37.75
2019-01-25T06:30:21.788Z,37.75
2019-01-25T06:31:21.834Z,37.79
2019-01-25T06:32:21.759Z,37.75
2019-01-25T06:33:21.793Z,37.82
2019-01-25T06:34:21.692Z,37.73
2019-01-25T06:35:21.727Z,37.85
2019-01-25T06:36:21.882Z,37.9
2019-01-25T06:37:21.697Z,37.98
2019-01-25T06:38:21.799Z,38.2
2019-01-25T06:39:21.420Z,38.02
2019-01-25T06:40:21.817Z,38.27
2019-01-25T06:41:21.770Z,38.34
2019-01-25T06:42:21.945Z,38.37
2019-01-25T06:43:22.120Z,38.66
2019-01-25T06:44:22.084Z,38.57
2019-01-25T06:45:21.400Z,38.52
2019-01-25T06:46:21.560Z,38.34
2019-01-25T06:47:21.583Z,38.39
2019-01-25T06:48:21.447Z,38.37
2019-01-25T06:49:23.453Z,38.34
2019-01-25T06:50:22.400Z,38.46
2019-01-25T06:51:21.830Z,38.42
2019-01-25T06:52:21.558Z,38.37
2019-01-25T06:53:21.572Z,38.41
2019-01-25T06:54:21.700Z,38.33
2019-01-25T06:55:21.922Z,38.36
2019-01-25T06:56:21.770Z,38.42
2019-01-25T06:57:21.717Z,38.35
2019-01-25T06:58:21.830Z,38.32
2019-01-25T06:59:22.028Z,38.3
2019-01-25T07:00:21.795Z,38.38
2019-01-25T07:01:21.949Z,38.37
2019-01-25T07:02:21.937Z,38.31
2019-01-25T07:03:22.003Z,38.33
2019-01-25T07:04:21.714Z,38.36
2019-01-25T07:05:21.966Z,38.34
2019-01-25T07:06:21.789Z,38.23
2019-01-25T07:07:21.884Z,38.66
2019-01-25T07:08:21.832Z,38.18
2019-01-25T07:09:21.674Z,38.07
2019-01-25T07:10:21.911Z,38.02
2019-01-25T07:11:21.802Z,38.02
2019-01-25T07:12:21.460Z,38.03
2019-01-25T07:13:21.936Z,38.02
2019-01-25T07:14:21.998Z,38.02
2019-01-25T07:15:21.959Z,38.03
2019-01-25T07:16:21.844Z,37.99
2019-01-25T07:17:21.448Z,37.98
2019-01-25T07:18:21.683Z,38.01
2019-01-25T07:19:21.506Z,37.99
2019-01-25T07:20:21.666Z,38
2019-01-25T07:21:22.091Z,37.98
2019-01-25T07:22:21.984Z,38.1
2019-01-25T07:23:21.485Z,38.22
2019-01-25T07:24:21.665Z,38.48
2019-01-25T07:25:22.073Z,38.42
2019-01-25T07:26:22.124Z,38.46
2019-01-25T07:27:21.585Z,38.44
2019-01-25T07:28:22.126Z,38.44
2019-01-25T07:29:22.273Z,38.36
2019-01-25T07:30:22.761Z,38.4
2019-01-25T07:31:22.147Z,38.4
2019-01-25T07:32:21.848Z,38.33
2019-01-25T07:33:22.871Z,38.39
2019-01-25T07:34:21.806Z,38.39
2019-01-25T07:35:22.289Z,38.35
2019-01-25T07:36:21.646Z,38.36
2019-01-25T07:37:21.992Z,38.35
2019-01-25T07:38:21.617Z,38.36
2019-01-25T07:39:23.009Z,38.34
2019-01-25T07:40:22.144Z,38.37
2019-01-25T07:41:21.842Z,38.34
2019-01-25T07:42:22.129Z,38.37
2019-01-25T07:43:22.144Z,38.35
2019-01-25T07:44:22.131Z,38.31
2019-01-25T07:45:22.198Z,38.3
2019-01-25T07:46:21.887Z,38.34
2019-01-25T07:47:21.643Z,38.33
2019-01-25T07:48:22.159Z,38.03
2019-01-25T07:49:21.847Z,38.07
2019-01-25T07:50:21.694Z,37.98
2019-01-25T07:51:21.818Z,38
2019-01-25T07:52:21.879Z,38.03
2019-01-25T07:53:22.924Z,38.03
2019-01-25T07:54:22.152Z,38.03
2019-01-25T07:55:21.919Z,38.2
2019-01-25T07:56:22.727Z,38.1
2019-01-25T07:57:22.136Z,38.25
2019-01-25T07:58:22.636Z,38.34
2019-01-25T07:59:23.481Z,38.86
2019-01-25T08:00:22.379Z,38.48
2019-01-25T08:01:22.165Z,38.48
2019-01-25T08:02:22.095Z,38.47
2019-01-25T08:03:23.919Z,38.8
2019-01-25T08:04:21.842Z,38.64
2019-01-25T08:05:21.733Z,38.83
2019-01-25T08:06:21.702Z,38.66
2019-01-25T08:07:22.159Z,38.82
2019-01-25T08:08:21.969Z,38.65
2019-01-25T08:09:21.963Z,38.64
2019-01-25T08:10:22.434Z,38.78
2019-01-25T08:11:21.978Z,38.6
2019-01-25T08:12:22.273Z,38.94
2019-01-25T08:13:21.750Z,38.68
2019-01-25T08:14:21.844Z,38.74
2019-01-25T08:15:22.551Z,38.58
2019-01-25T08:16:22.221Z,38.77
2019-01-25T08:17:22.591Z,38.75
2019-01-25T08:18:22.084Z,38.59
2019-01-25T08:19:21.899Z,38.62
2019-01-25T08:20:21.838Z,38.65
2019-01-25T08:21:21.805Z,38.62
2019-01-25T08:22:22.259Z,38.65
2019-01-25T08:23:21.745Z,38.5
2019-01-25T08:24:22.513Z,38.46
2019-01-25T08:25:22.084Z,38.5
2019-01-25T08:26:23.564Z,38.85
2019-01-25T08:27:21.863Z,38.68
2019-01-25T08:28:21.906Z,38.18
2019-01-25T08:29:28.843Z,38.08
2019-01-25T08:30:23.163Z,37.81
2019-01-25T08:31:23.761Z,37.77
2019-01-25T08:32:21.495Z,38.15
2019-01-25T08:33:23.934Z,38.26
2019-01-25T08:34:25.549Z,38.12
2019-01-25T08:35:22.151Z,38.3
2019-01-25T08:36:22.268Z,38.19
2019-01-25T08:37:21.522Z,38.17
2019-01-25T08:38:22.248Z,38.09
2019-01-25T08:39:22.413Z,38.15
2019-01-25T08:40:21.828Z,38.2
2019-01-25T08:41:22.458Z,38.25
2019-01-25T08:42:21.785Z,38.19
2019-01-25T08:43:21.551Z,38.03
2019-01-25T08:44:21.881Z,38.41
2019-01-25T08:45:22.316Z,38.33
2019-01-25T08:46:22.032Z,37.87
2019-01-25T08:47:21.853Z,37.68
2019-01-25T08:48:21.833Z,37.52
2019-01-25T08:49:22.269Z,37.33
2019-01-25T08:50:22.339Z,37.34
2019-01-25T08:51:22.584Z,37.98
2019-01-25T08:52:22.086Z,38.06
2019-01-25T08:53:22.258Z,38.11
2019-01-25T08:54:21.724Z,38.12
2019-01-25T08:55:21.961Z,38.2
2019-01-25T08:56:22.592Z,38.17
2019-01-25T08:57:22.482Z,38.2
2019-01-25T08:58:21.962Z,38.22
2019-01-25T08:59:22.065Z,38.18
2019-01-25T09:00:21.771Z,38.19
2019-01-25T09:01:22.004Z,38.28
2019-01-25T09:02:21.880Z,38.25
2019-01-25T09:03:23.342Z,38.29
2019-01-25T09:04:21.802Z,38.11
2019-01-25T09:05:23.496Z,38.21
2019-01-25T09:06:21.609Z,38.24
2019-01-25T09:07:21.829Z,38.26
2019-01-25T09:08:21.412Z,38.13
2019-01-25T09:09:22.115Z,38.21
2019-01-25T09:10:21.614Z,38.17
2019-01-25T09:11:22.261Z,38.26
2019-01-25T09:12:23.852Z,38.12
2019-01-25T09:13:22.195Z,38.23
2019-01-25T09:14:21.894Z,38.25
2019-01-25T09:15:23.061Z,38.25
2019-01-25T09:16:21.809Z,38.26
2019-01-25T09:17:21.595Z,38.12
2019-01-25T09:18:22.789Z,37.97
2019-01-25T09:19:21.500Z,37.99
2019-01-25T09:20:21.850Z,38.1
2019-01-25T09:21:21.472Z,38.06
2019-01-25T09:22:21.538Z,38.14
2019-01-25T09:23:21.756Z,38.18
2019-01-25T09:24:21.854Z,38.13
2019-01-25T09:25:21.421Z,38.19
2019-01-25T09:26:21.364Z,38.15
2019-01-25T09:27:21.937Z,38.12
2019-01-25T09:28:21.374Z,38.12
2019-01-25T09:29:21.837Z,38.4
2019-01-25T09:30:21.826Z,38.36
2019-01-25T09:31:21.507Z,38.41
2019-01-25T09:32:21.921Z,38.39
2019-01-25T09:33:22.009Z,38.27
2019-01-25T09:34:21.482Z,38.36
2019-01-25T09:35:21.779Z,38.29
2019-01-25T09:36:21.526Z,38.26
2019-01-25T09:37:21.861Z,38.3
2019-01-25T09:38:21.447Z,38.41
2019-01-25T09:39:22.265Z,38.3
2019-01-25T09:40:21.763Z,38.33
2019-01-25T09:41:23.224Z,38.33
2019-01-25T09:42:26.795Z,38.29
2019-01-25T09:43:21.581Z,38.36
2019-01-25T09:44:21.730Z,38.41
2019-01-25T09:45:22.551Z,38.41
2019-01-25T09:46:21.791Z,38.32
2019-01-25T09:47:21.619Z,38.41
2019-01-25T09:48:21.843Z,38.39
2019-01-25T09:49:21.583Z,36.98
2019-01-25T09:50:21.738Z,36.44
2019-01-25T09:51:21.971Z,35.83
2019-01-25T09:52:22.085Z,35.94
2019-01-25T09:53:22.226Z,36.22
2019-01-25T09:54:21.864Z,36.44
2019-01-25T09:55:25.093Z,36.94
2019-01-25T09:56:22.318Z,36.98
2019-01-25T09:57:21.841Z,37.37
2019-01-25T09:58:21.799Z,37.59
2019-01-25T09:59:22.006Z,37.54
2019-01-25T10:00:21.269Z,37.73
2019-01-25T10:01:23.399Z,37.67
2019-01-25T10:02:21.604Z,37.7
2019-01-25T10:03:21.756Z,37.86
2019-01-25T10:04:21.445Z,37.92
2019-01-25T10:05:22.259Z,37.9
2019-01-25T10:06:21.762Z,37.82
2019-01-25T10:07:21.863Z,38.05
2019-01-25T10:08:21.604Z,37.99
2019-01-25T10:09:21.450Z,37.96
2019-01-25T10:10:21.901Z,38.03
2019-01-25T10:11:21.528Z,38.09
2019-01-25T10:12:21.905Z,37.99
2019-01-25T10:13:21.486Z,38.08
2019-01-25T10:14:21.329Z,38.01
2019-01-25T10:15:24.291Z,38.1
2019-01-25T10:16:21.773Z,38.14
2019-01-25T10:17:21.821Z,38.13
2019-01-25T10:18:25.408Z,38.2
2019-01-25T10:19:21.625Z,38.23
2019-01-25T10:20:21.955Z,38.19
2019-01-25T10:21:21.896Z,38.2
2019-01-25T10:22:23.354Z,38.16
2019-01-25T10:23:21.441Z,38.15
2019-01-25T10:24:21.353Z,38.18
2019-01-25T10:25:21.412Z,38.18
2019-01-25T10:26:23.603Z,38.21
2019-01-25T10:27:22.012Z,38.25
2019-01-25T10:28:21.749Z,38.36
2019-01-25T10:29:21.599Z,38.35
2019-01-25T10:30:21.798Z,38.36
2019-01-25T10:31:21.448Z,38.35
2019-01-25T10:32:22.002Z,38.35
2019-01-25T10:33:21.965Z,38.38
2019-01-25T10:34:21.820Z,38.31
2019-01-25T10:35:21.792Z,38.39
2019-01-25T10:36:21.480Z,38.32
2019-01-25T10:37:21.878Z,38.26
2019-01-25T10:38:21.619Z,38.24
2019-01-25T10:39:22.296Z,38.17
2019-01-25T10:40:22.104Z,38.3
2019-01-25T10:41:21.917Z,38.3
2019-01-25T10:42:21.691Z,38.24
2019-01-25T10:43:21.724Z,38.2
2019-01-25T10:44:22.778Z,38.34
2019-01-25T10:45:23.442Z,38.24
2019-01-25T10:46:21.571Z,38.28
2019-01-25T10:47:21.605Z,38.34
2019-01-25T10:48:21.870Z,38.36
2019-01-25T10:49:21.471Z,38.33
2019-01-25T10:50:21.554Z,38.28
2019-01-25T10:51:21.816Z,38.25
2019-01-25T10:52:21.480Z,38.29
2019-01-25T10:53:21.607Z,38.31
2019-01-25T10:54:21.904Z,38.29
2019-01-25T10:55:21.911Z,38.31
2019-01-25T10:56:22.232Z,38.27
2019-01-25T10:57:21.502Z,38.28
2019-01-25T10:58:21.653Z,38.32
2019-01-25T10:59:21.891Z,38.42
2019-01-25T11:00:21.503Z,38.33
2019-01-25T11:01:21.866Z,38.31
2019-01-25T11:02:21.341Z,38.42
2019-01-25T11:03:21.962Z,38.33
2019-01-25T11:04:21.854Z,38.54
2019-01-25T11:05:21.545Z,38.15
2019-01-25T11:06:21.857Z,38.17
2019-01-25T11:07:21.997Z,38.15
2019-01-25T11:08:21.573Z,38.19
2019-01-25T11:09:21.771Z,38.18
2019-01-25T11:10:21.923Z,38.2
2019-01-25T11:11:21.483Z,38.19
2019-01-25T11:12:21.570Z,38.16
2019-01-25T11:13:21.754Z,38.12
2019-01-25T11:14:21.376Z,38.2
2019-01-25T11:15:22.563Z,38.19
2019-01-25T11:16:21.618Z,38.22
2019-01-25T11:17:21.500Z,38.16
2019-01-25T11:18:21.466Z,38.18
2019-01-25T11:19:21.623Z,38.2
2019-01-25T11:20:22.115Z,38.14
2019-01-25T11:21:21.993Z,38.15
2019-01-25T11:22:21.594Z,38.18
2019-01-25T11:23:21.419Z,38.18
2019-01-25T11:24:21.448Z,38.15
2019-01-25T11:25:21.592Z,38.13
2019-01-25T11:26:23.600Z,38.15
2019-01-25T11:27:22.101Z,38.18
2019-01-25T11:28:23.355Z,38.16
2019-01-25T11:29:21.266Z,38.2
2019-01-25T11:30:21.768Z,38.17
2019-01-25T11:31:21.773Z,38.15
2019-01-25T11:32:21.973Z,38.13
2019-01-25T11:33:21.800Z,38.18
2019-01-25T11:34:21.505Z,38.18
2019-01-25T11:35:21.986Z,38.18
2019-01-25T11:36:23.489Z,38.2
2019-01-25T11:37:21.872Z,38.1
2019-01-25T11:38:21.683Z,38.18
2019-01-25T11:39:21.977Z,38.3
2019-01-25T11:40:22.021Z,38.18
2019-01-25T11:41:21.536Z,38.12
2019-01-25T11:42:21.634Z,38.13
2019-01-25T11:43:21.844Z,38.21
2019-01-25T11:44:22.187Z,38.23
2019-01-25T11:45:21.530Z,38.28
2019-01-25T11:46:22.037Z,38.37
2019-01-25T11:47:21.399Z,38.45
2019-01-25T11:48:21.802Z,38.41
2019-01-25T11:49:21.339Z,38.32
2019-01-25T11:50:21.809Z,38.74
2019-01-25T11:51:22.015Z,38.49
2019-01-25T11:52:25.479Z,38.57
2019-01-25T11:53:21.355Z,38.83
2019-01-25T11:54:21.457Z,38.61
2019-01-25T11:55:21.945Z,38.53
2019-01-25T11:56:22.900Z,38.55
2019-01-25T11:57:21.427Z,38.59
2019-01-25T11:58:21.673Z,38.41
2019-01-25T11:59:21.838Z,38.66
2019-01-25T12:00:21.770Z,38.51
2019-01-25T12:01:21.983Z,38.39
2019-01-25T12:02:21.613Z,38.4
2019-01-25T12:03:22.115Z,38.54
2019-01-25T12:04:21.796Z,38.63
2019-01-25T12:05:21.840Z,37.99
2019-01-25T12:06:21.471Z,37.7
2019-01-25T12:07:22.388Z,36.93
2019-01-25T12:08:21.441Z,36.97
2019-01-25T12:09:21.573Z,36.66
2019-01-25T12:10:21.943Z,36.59
2019-01-25T12:11:22.132Z,36.87
2019-01-25T12:12:21.773Z,36.51
2019-01-25T12:13:21.693Z,36.41
2019-01-25T12:14:21.435Z,37.42
2019-01-25T12:15:21.301Z,37.74
2019-01-25T12:16:21.869Z,37.38
2019-01-25T12:17:21.390Z,37.62
2019-01-25T12:18:21.937Z,37.58
2019-01-25T12:19:22.128Z,37.6
2019-01-25T12:20:23.211Z,37.66
2019-01-25T12:21:21.577Z,37.73
2019-01-25T12:22:22.744Z,37.75
2019-01-25T12:23:21.827Z,37.75
2019-01-25T12:24:21.423Z,37.73
2019-01-25T12:25:21.862Z,37.78
2019-01-25T12:26:21.930Z,37.78
2019-01-25T12:27:21.748Z,37.85
2019-01-25T12:28:21.346Z,37.8
2019-01-25T12:29:22.683Z,37.79
2019-01-25T12:30:21.452Z,37.78
2019-01-25T12:31:21.489Z,37.82
2019-01-25T12:32:21.993Z,37.83
2019-01-25T12:33:21.821Z,37.82
2019-01-25T12:34:21.436Z,37.85
2019-01-25T12:35:22.013Z,37.82
2019-01-25T12:36:23.302Z,37.83
2019-01-25T12:37:21.858Z,37.81
2019-01-25T12:38:23.087Z,37.86
2019-01-25T12:39:23.303Z,37.86
2019-01-25T12:40:21.529Z,37.83
2019-01-25T12:41:22.127Z,37.83
2019-01-25T12:42:21.444Z,37.86
2019-01-25T12:43:24.624Z,37.83
2019-01-25T12:44:21.547Z,37.89
2019-01-25T12:45:21.587Z,37.82
2019-01-25T12:46:21.411Z,37.9
2019-01-25T12:47:21.517Z,37.85
2019-01-25T12:48:21.911Z,37.91
2019-01-25T12:49:21.367Z,37.87
2019-01-25T12:50:22.000Z,37.83
2019-01-25T12:51:21.811Z,37.84
2019-01-25T12:52:21.542Z,37.84
2019-01-25T12:53:22.059Z,37.88
2019-01-25T12:54:21.482Z,37.97
2019-01-25T12:55:21.831Z,38.21